METAR Data
IDs: Format: Raw Decoded Include TAF

Data at: 0808 UTC 07 Dec 2021

KORL 070753Z AUTO 30003KT 1/4SM R07/1600V1800FT FG VV002 19/18 A3006 RMK AO2 SLP182 T01890183
KORL 070747Z AUTO 30003KT 1/4SM R07/1600V2400FT FG OVC002 19/18 A3006 RMK AO2
KORL 070740Z AUTO 30003KT 1 1/2SM R07/2000VP6000FT BR BKN003 19/18 A3006 RMK AO2 T01890183
KORL 070735Z AUTO 30003KT 4SM R07/4000VP6000FT BR BKN003 19/18 A3006 RMK AO2 T01890178
KORL 070721Z AUTO 30003KT 10SM FEW003 18/17 A3006 RMK AO2 T01830172
KORL 070653Z AUTO 00000KT 10SM CLR 19/17 A3006 RMK AO2 SLP183 T01890172
KORL 070553Z AUTO 22003KT 10SM CLR 19/17 A3006 RMK AO2 SLP183 T01890172 10256 20189 58010
KORL 070453Z AUTO 27003KT 10SM CLR 21/18 A3009 RMK AO2 SLP191 T02060178 402890161 TSNO
KORL 070353Z AUTO 29006KT 10SM CLR 21/18 A3010 RMK AO2 SLP197 T02110178
KORL 070253Z 27004KT 10SM CLR 22/18 A3009 RMK AO2 SLP193 T02170178 50002
KORL 070153Z 29006KT 10SM CLR 23/18 A3010 RMK AO2 SLP196 T02280178
KORL 070053Z 31007KT 10SM CLR 24/17 A3009 RMK AO2 SLP193 T02390172
KORL 062353Z 31007KT 10SM BKN055 26/17 A3009 RMK AO2 SLP191 T02560167 10289 20250 53020
KORL 062253Z 32004KT 10SM CLR 26/16 A3005 RMK AO2 SLP179 T02610161
KORL 062153Z 28007KT 10SM SCT050 27/16 A3004 RMK AO2 SLP175 T02720161
KORL 062053Z 26007KT 10SM FEW049 28/16 A3003 RMK AO2 SLP171 T02830161 56016
KORL 061953Z 27008KT 10SM FEW043 29/17 A3004 RMK AO2 SLP175 T02890167
KORL 061853Z 21008KT 180V260 10SM CLR 28/18 A3006 RMK AO2 SLP181 T02780178
KORL 061753Z 19008KT 10SM FEW035 28/18 A3007 RMK AO2 SLP187 T02780183 10278 20161 58025
KORL 061653Z 20006KT 10SM FEW035 SCT042 27/19 A3011 RMK AO2 SLP198 T02720194
KORL 061553Z 20006KT 10SM CLR 26/20 A3014 RMK AO2 SLP210 T02560200
KORL 061453Z 19003KT 10SM CLR 24/20 A3015 RMK AO2 SLP212 T02390200 50010
KORL 061353Z 00000KT 7SM SCT001 21/19 A3016 RMK AO2 SLP214 T02060189
KORL 061341Z 00000KT 6SM BR SCT001 19/18 A3015 RMK AO2 T01940183
KORL 061334Z 00000KT 6SM BR BKN001 19/18 A3015 RMK AO2 T01940183
KORL 061303Z 00000KT 3SM BR OVC002 18/17 A3014 RMK AO2 T01780172
KORL 061253Z 00000KT 1 1/2SM R07/6000VP6000FT BR OVC002 17/17 A3014 RMK AO2 SLP210 T01720167
KORL 061239Z 00000KT M1/4SM R07/1400V2600FT FG VV002 17/16 A3014 RMK AO2 T01670156
KORL 061232Z 00000KT 1/4SM R07/1400V1600FT FG VV002 16/16 A3013 RMK AO2 T01610156
KORL 061220Z 00000KT 1/2SM R07/1400V2000FT FG OVC001 17/16 A3013 RMK AO2 T01670161
KORL 061207Z 00000KT 1/2SM R07/P6000FT FG OVC002 17/16 A3012 RMK AO2 T01670156
KORL 061153Z 10003KT 6SM R07/4000VP6000FT BR OVC002 17/16 A3012 RMK AO2 SLP202 T01670156 10194 20161 51002
KORL 061143Z AUTO 10003KT 2 1/2SM R07/1800VP6000FT BR OVC002 16/15 A3012 RMK AO2 T01610150
KORL 061133Z AUTO 10003KT 4SM R07/1800VP6000FT BR BKN002 16/15 A3012 RMK AO2 T01610150
KORL 061126Z AUTO 00000KT 2 1/2SM BR BKN003 17/16 A3012 RMK AO2 VIS 1V4 T01670156
KORL 061053Z AUTO 00000KT 9SM OVC003 17/16 A3012 RMK AO2 SLP202 T01720161
KORL 061051Z AUTO 00000KT 6SM BR BKN003 17/16 A3012 RMK AO2
KORL 061044Z AUTO 00000KT 2 1/2SM BR BKN003 17/16 A3012 RMK AO2 VIS 1 1/4V5 T01720161
KORL 061034Z AUTO 00000KT 1/2SM R07/P6000FT FG VV003 16/15 A3012 RMK AO2 T01610150
KORL 061027Z AUTO 00000KT 1/2SM R07/P6000FT FG CLR 16/15 A3012 RMK AO2 T01610150
KORL 061010Z AUTO 00000KT 1 3/4SM BR CLR 16/15 A3012 RMK AO2 T01610150
KORL 060953Z AUTO 00000KT 7SM CLR 16/14 A3011 RMK AO2 SLP200 T01610144
KORL 060853Z AUTO 00000KT 9SM CLR 17/15 A3011 RMK AO2 SLP199 T01670150 56010
KORL 060753Z AUTO 00000KT 10SM CLR 18/16 A3011 RMK AO2 SLP200 T01780156
KORL 060653Z AUTO 31003KT 10SM CLR 18/16 A3013 RMK AO2 SLP205 T01830161
KORL 060553Z AUTO 31003KT 10SM CLR 19/16 A3014 RMK AO2 SLP209 T01890161 10233 20189 58003
KORL 060453Z AUTO 00000KT 10SM CLR 19/16 A3014 RMK AO2 SLP210 T01940161 402720133
KORL 060353Z AUTO 00000KT 10SM CLR 20/17 A3015 RMK AO2 SLP212 T02000167
KORL 060253Z AUTO 00000KT 10SM OVC060 21/16 A3015 RMK AO2 SLP212 T02060161 53009
KORL 060153Z 07003KT 10SM CLR 21/16 A3013 RMK AO2 SLP208 T02060156
KORL 060053Z 10006KT 10SM CLR 21/16 A3013 RMK AO2 SLP207 T02110156
KORL 052353Z 10005KT 10SM OVC060 23/16 A3012 RMK AO2 SLP203 T02330161 10272 20233 53004
KORL 052253Z 11008KT 10SM OVC060 24/17 A3011 RMK AO2 SLP200 T02390167
KORL 052153Z 14004KT 10SM OVC048 25/15 A3011 RMK AO2 SLP199 T02500150
KORL 052053Z 14006KT 10SM OVC055 26/15 A3011 RMK AO2 SLP198 T02610150 55010